createdAt,value
2019-05-26T00:01:36.283Z,42.58
2019-05-26T00:04:10.315Z,42.54
2019-05-26T00:06:44.476Z,42.57
2019-05-26T00:09:19.768Z,42.60
2019-05-26T00:11:53.648Z,42.54
2019-05-26T00:14:27.853Z,42.36
2019-05-26T00:17:01.713Z,42.40
2019-05-26T00:19:35.799Z,42.10
2019-05-26T00:22:09.883Z,42.25
2019-05-26T00:24:43.923Z,42.21
2019-05-26T00:27:17.939Z,42.26
2019-05-26T00:29:51.995Z,42.21
2019-05-26T00:32:25.959Z,42.34
2019-05-26T00:35:00.354Z,42.47
2019-05-26T00:37:48.487Z,42.29
2019-05-26T00:40:10.770Z,42.39
2019-05-26T00:42:44.702Z,42.31
2019-05-26T00:45:18.859Z,42.37
2019-05-26T00:47:52.910Z,42.44
2019-05-26T00:50:27.452Z,42.43
2019-05-26T00:53:01.248Z,42.52
2019-05-26T00:55:35.465Z,42.59
2019-05-26T00:58:09.479Z,42.66
2019-05-26T01:00:44.680Z,42.56
2019-05-26T01:03:18.873Z,42.53
2019-05-26T01:05:53.348Z,42.62
2019-05-26T01:08:27.465Z,42.53
2019-05-26T01:11:01.865Z,42.42
2019-05-26T01:13:36.107Z,42.45
2019-05-26T01:16:10.430Z,42.62
2019-05-26T01:18:44.617Z,42.62
2019-05-26T01:21:18.896Z,42.61
2019-05-26T01:23:52.726Z,42.63
2019-05-26T01:26:27.230Z,42.70
2019-05-26T01:29:01.162Z,42.74
2019-05-26T01:31:35.546Z,42.72
2019-05-26T01:34:09.332Z,42.66
2019-05-26T01:36:43.765Z,42.63
2019-05-26T01:39:17.633Z,42.61
2019-05-26T01:41:52.004Z,42.44
2019-05-26T01:44:26.007Z,42.40
2019-05-26T01:47:00.080Z,42.48
2019-05-26T01:49:34.180Z,42.52
2019-05-26T01:52:08.324Z,42.45
2019-05-26T01:54:42.429Z,42.49
2019-05-26T01:57:16.746Z,42.61
2019-05-26T01:59:50.691Z,42.69
2019-05-26T02:02:24.672Z,42.66
2019-05-26T02:04:58.718Z,42.56
2019-05-26T02:07:32.855Z,42.61
2019-05-26T02:10:07.634Z,42.68
2019-05-26T02:12:42.121Z,42.66
2019-05-26T02:15:16.609Z,42.68
2019-05-26T02:17:51.124Z,42.60
2019-05-26T02:20:25.607Z,42.61
2019-05-26T02:22:59.886Z,42.60
2019-05-26T02:25:33.999Z,42.61
2019-05-26T02:28:08.111Z,42.51
2019-05-26T02:30:42.082Z,42.52
2019-05-26T02:33:16.085Z,42.52
2019-05-26T02:35:50.653Z,42.46
2019-05-26T02:38:26.339Z,42.46
2019-05-26T02:41:00.667Z,42.52
2019-05-26T02:43:34.634Z,42.31
2019-05-26T02:46:09.421Z,42.36
2019-05-26T02:48:43.478Z,42.41
2019-05-26T02:51:17.838Z,42.46
2019-05-26T02:53:52.079Z,42.48
2019-05-26T02:56:26.698Z,42.48
2019-05-26T02:59:00.750Z,42.45
2019-05-26T03:01:35.327Z,42.48
2019-05-26T03:04:09.758Z,42.54
2019-05-26T03:06:45.499Z,42.52
2019-05-26T03:09:23.563Z,42.54
2019-05-26T03:11:58.420Z,42.54
2019-05-26T03:14:36.634Z,42.53
2019-05-26T03:17:10.756Z,42.60
2019-05-26T03:19:46.814Z,42.40
2019-05-26T03:22:24.335Z,42.42
2019-05-26T03:24:59.726Z,42.43
2019-05-26T03:27:34.057Z,42.41
2019-05-26T03:30:08.099Z,42.45
2019-05-26T03:32:42.422Z,42.47
2019-05-26T03:35:16.549Z,42.50
2019-05-26T03:37:50.866Z,42.50
2019-05-26T03:40:24.856Z,42.49
2019-05-26T03:42:59.089Z,42.56
2019-05-26T03:46:17.897Z,42.50
2019-05-26T03:48:53.013Z,42.55
2019-05-26T03:51:27.262Z,42.71
2019-05-26T03:54:01.246Z,42.55
2019-05-26T03:56:36.145Z,42.55
2019-05-26T03:59:10.638Z,42.64
2019-05-26T04:01:44.808Z,42.40
2019-05-26T04:04:19.152Z,42.41
2019-05-26T04:06:53.183Z,42.42
2019-05-26T04:09:27.414Z,42.40
2019-05-26T04:12:01.400Z,42.39
2019-05-26T04:14:35.376Z,42.40
2019-05-26T04:17:09.661Z,42.41
2019-05-26T04:19:43.804Z,42.40
2019-05-26T04:22:17.995Z,42.42
2019-05-26T04:24:52.134Z,42.35
2019-05-26T04:27:26.224Z,42.35
2019-05-26T04:30:02.304Z,42.32
2019-05-26T04:32:37.206Z,42.28
2019-05-26T04:35:11.491Z,42.20
2019-05-26T04:37:45.528Z,42.19
2019-05-26T04:40:27.315Z,42.17
2019-05-26T04:42:55.605Z,42.20
2019-05-26T04:45:29.752Z,42.34
2019-05-26T04:48:04.318Z,42.37
2019-05-26T04:50:38.333Z,42.45
2019-05-26T04:53:12.769Z,42.38
2019-05-26T04:55:46.800Z,42.41
2019-05-26T04:58:21.161Z,42.45
2019-05-26T05:00:55.292Z,42.43
2019-05-26T05:03:29.690Z,42.39
2019-05-26T05:06:03.710Z,42.43
2019-05-26T05:08:37.767Z,42.46
2019-05-26T05:11:11.647Z,42.35
2019-05-26T05:13:45.941Z,42.32
2019-05-26T05:16:20.093Z,42.43
2019-05-26T05:18:54.212Z,42.45
2019-05-26T05:21:28.296Z,42.45
2019-05-26T05:24:02.707Z,42.22
2019-05-26T05:26:36.866Z,42.33
2019-05-26T05:29:10.986Z,42.09
2019-05-26T05:31:44.967Z,42.17
2019-05-26T05:34:19.280Z,42.25
2019-05-26T05:36:53.307Z,42.29
2019-05-26T05:39:27.253Z,42.26
2019-05-26T05:42:01.515Z,42.26
2019-05-26T05:44:35.681Z,42.15
2019-05-26T05:47:10.996Z,42.28
2019-05-26T05:49:45.094Z,42.29
2019-05-26T05:52:19.392Z,42.18
2019-05-26T05:54:53.539Z,41.91
2019-05-26T05:57:27.641Z,42.22
2019-05-26T06:00:02.395Z,41.92
2019-05-26T06:02:37.865Z,42.08
2019-05-26T06:05:12.299Z,41.95
2019-05-26T06:07:46.384Z,42.09
2019-05-26T06:10:22.168Z,42.04
2019-05-26T06:12:56.260Z,42.12
2019-05-26T06:15:30.581Z,41.94
2019-05-26T06:18:04.846Z,41.98
2019-05-26T06:20:39.571Z,41.93
2019-05-26T06:23:13.629Z,42.02
2019-05-26T06:25:47.937Z,41.66
2019-05-26T06:28:21.756Z,41.62
2019-05-26T06:30:55.983Z,41.85
2019-05-26T06:33:29.791Z,41.93
2019-05-26T06:36:04.207Z,41.90
2019-05-26T06:38:38.211Z,41.88
2019-05-26T06:41:12.217Z,41.88
2019-05-26T06:43:46.112Z,41.88
2019-05-26T06:46:20.132Z,41.83
2019-05-26T06:48:54.060Z,41.79
2019-05-26T06:51:28.392Z,41.89
2019-05-26T06:54:02.501Z,41.87
2019-05-26T06:56:36.878Z,41.79
2019-05-26T06:59:11.113Z,41.74
2019-05-26T07:01:45.488Z,41.65
2019-05-26T07:04:19.331Z,41.51
2019-05-26T07:06:53.637Z,41.56
2019-05-26T07:09:27.932Z,41.73
2019-05-26T07:12:02.132Z,41.54
2019-05-26T07:14:36.319Z,41.45
2019-05-26T07:17:10.472Z,41.56
2019-05-26T07:19:44.425Z,41.40
2019-05-26T07:22:18.888Z,41.33
2019-05-26T07:24:52.866Z,41.58
2019-05-26T07:27:27.147Z,41.27
2019-05-26T07:30:01.471Z,41.17
2019-05-26T07:32:36.676Z,40.94
2019-05-26T07:35:11.018Z,40.99
2019-05-26T07:37:45.930Z,41.05
2019-05-26T07:40:20.253Z,40.92
2019-05-26T07:42:54.544Z,40.92
2019-05-26T07:45:28.514Z,41.12
2019-05-26T07:48:02.478Z,41.03
2019-05-26T07:50:36.900Z,40.78
2019-05-26T07:53:10.822Z,40.55
2019-05-26T07:55:44.872Z,40.20
2019-05-26T07:58:18.917Z,39.83
2019-05-26T08:00:53.136Z,39.34
2019-05-26T08:03:27.201Z,38.33
2019-05-26T08:06:01.475Z,37.91
2019-05-26T08:08:35.428Z,37.21
2019-05-26T08:11:09.476Z,36.75
2019-05-26T08:13:43.591Z,37.39
2019-05-26T08:16:18.020Z,36.60
2019-05-26T08:18:52.266Z,35.85
2019-05-26T08:21:26.128Z,43.41
2019-05-26T08:24:00.505Z,43.83
2019-05-26T08:26:34.674Z,41.35
2019-05-26T08:29:08.917Z,39.87
2019-05-26T08:31:43.089Z,38.75
2019-05-26T08:34:17.712Z,37.49
2019-05-26T08:36:51.927Z,36.40
2019-05-26T08:39:26.698Z,35.68
2019-05-26T08:42:00.620Z,35.27
2019-05-26T08:44:34.959Z,34.89
2019-05-26T08:47:09.150Z,34.70
2019-05-26T08:49:43.410Z,34.69
2019-05-26T08:52:17.674Z,34.98
2019-05-26T08:54:51.492Z,35.32
2019-05-26T08:57:25.538Z,35.38
2019-05-26T08:59:59.890Z,35.35
2019-05-26T09:02:33.999Z,35.26
2019-05-26T09:05:09.155Z,35.36
2019-05-26T09:07:44.160Z,35.30
2019-05-26T09:10:18.553Z,35.34
2019-05-26T09:13:00.820Z,35.35
2019-05-26T09:15:28.882Z,35.52
2019-05-26T09:18:02.771Z,35.66
2019-05-26T09:20:36.713Z,35.71
2019-05-26T09:23:10.740Z,36.00
2019-05-26T09:25:46.718Z,36.10
2019-05-26T09:28:21.002Z,36.11
2019-05-26T09:30:57.040Z,36.45
2019-05-26T09:33:32.489Z,36.50
2019-05-26T09:36:07.104Z,36.38
2019-05-26T09:38:45.029Z,36.37
2019-05-26T09:41:20.756Z,36.64
2019-05-26T09:44:00.905Z,36.86
2019-05-26T09:46:35.198Z,37.46
2019-05-26T09:49:10.627Z,37.70
2019-05-26T09:51:44.866Z,37.87
2019-05-26T09:54:19.042Z,37.64
2019-05-26T09:56:53.351Z,37.42
2019-05-26T09:59:27.383Z,37.30
2019-05-26T10:02:01.465Z,37.37
2019-05-26T10:04:35.504Z,37.22
2019-05-26T10:07:14.887Z,37.21
2019-05-26T10:09:46.352Z,37.33
2019-05-26T10:12:20.603Z,37.66
2019-05-26T10:14:55.279Z,37.95
2019-05-26T10:17:32.535Z,38.04
2019-05-26T10:20:07.352Z,38.10
2019-05-26T10:22:42.308Z,38.26
2019-05-26T10:25:16.757Z,38.59
2019-05-26T10:27:50.764Z,38.53
2019-05-26T10:30:24.981Z,37.83
2019-05-26T10:32:59.052Z,37.62
2019-05-26T10:35:33.083Z,37.60
2019-05-26T10:38:08.152Z,37.11
2019-05-26T10:40:41.994Z,36.87
2019-05-26T10:43:16.856Z,36.74
2019-05-26T10:45:50.821Z,36.54
2019-05-26T10:48:24.984Z,36.44
2019-05-26T10:50:58.906Z,36.40
2019-05-26T10:53:32.496Z,36.41
2019-05-26T10:56:06.824Z,36.38
2019-05-26T10:58:41.056Z,36.29
2019-05-26T11:01:14.876Z,36.27
2019-05-26T11:03:48.964Z,36.43
2019-05-26T11:06:23.076Z,36.49
2019-05-26T11:08:57.315Z,36.61
2019-05-26T11:11:31.244Z,36.53
2019-05-26T11:14:05.569Z,36.53
2019-05-26T11:16:40.016Z,36.45
2019-05-26T11:19:14.464Z,36.44
2019-05-26T11:21:48.711Z,36.73
2019-05-26T11:24:22.861Z,36.79
2019-05-26T11:27:08.504Z,36.73
2019-05-26T11:29:33.089Z,36.71
2019-05-26T11:32:07.159Z,36.74
2019-05-26T11:34:41.310Z,36.80
2019-05-26T11:37:15.118Z,36.70
2019-05-26T11:39:49.070Z,36.67
2019-05-26T11:42:23.214Z,36.59
2019-05-26T11:44:57.525Z,36.49
2019-05-26T11:47:31.574Z,36.46
2019-05-26T11:50:06.161Z,36.41
2019-05-26T11:52:40.305Z,36.32
2019-05-26T11:55:14.887Z,36.20
2019-05-26T11:57:49.114Z,36.27
2019-05-26T12:00:23.345Z,36.20
2019-05-26T12:03:00.500Z,36.40
2019-05-26T12:05:33.236Z,36.95
2019-05-26T12:08:07.455Z,36.85
2019-05-26T12:10:41.385Z,36.90
2019-05-26T12:13:15.715Z,37.00
2019-05-26T12:15:49.922Z,36.99
2019-05-26T12:18:24.007Z,36.95
2019-05-26T12:20:58.466Z,36.71
2019-05-26T12:23:32.689Z,36.96
2019-05-26T12:26:06.832Z,36.96
2019-05-26T12:28:40.688Z,36.84
2019-05-26T12:31:14.900Z,36.81
2019-05-26T12:33:49.769Z,36.73
2019-05-26T12:36:24.138Z,36.87
2019-05-26T12:38:58.565Z,35.40
2019-05-26T12:41:36.402Z,34.62
2019-05-26T12:44:10.899Z,37.55
2019-05-26T12:46:44.608Z,38.54
2019-05-26T12:49:18.751Z,38.86
2019-05-26T12:51:52.992Z,38.55
2019-05-26T12:54:26.902Z,38.06
2019-05-26T12:57:01.089Z,37.63
2019-05-26T12:59:35.135Z,37.66
2019-05-26T13:02:10.547Z,37.26
2019-05-26T13:04:44.606Z,35.59
2019-05-26T13:07:18.585Z,34.88
2019-05-26T13:09:52.809Z,34.41
2019-05-26T13:12:28.192Z,34.30
2019-05-26T13:15:05.783Z,34.17
2019-05-26T13:17:38.168Z,34.75
2019-05-26T13:20:13.090Z,34.76
2019-05-26T13:22:47.194Z,34.92
2019-05-26T13:25:22.635Z,35.09
2019-05-26T13:27:56.515Z,35.53
2019-05-26T13:30:31.234Z,35.85
2019-05-26T13:33:05.353Z,36.09
2019-05-26T13:35:39.609Z,36.48
2019-05-26T13:38:13.861Z,36.75
2019-05-26T13:40:48.060Z,36.94
2019-05-26T13:43:23.379Z,37.28
2019-05-26T13:45:59.555Z,37.45
2019-05-26T13:48:33.706Z,37.80
2019-05-26T13:51:08.267Z,38.00
2019-05-26T13:53:42.483Z,38.20
2019-05-26T13:56:16.460Z,38.16
2019-05-26T13:58:50.551Z,38.26
2019-05-26T14:01:24.842Z,38.51
2019-05-26T14:03:59.337Z,38.49
2019-05-26T14:06:33.611Z,38.43
2019-05-26T14:09:10.095Z,38.37
2019-05-26T14:11:44.496Z,38.38
2019-05-26T14:14:18.611Z,38.31
2019-05-26T14:16:54.135Z,38.36
2019-05-26T14:19:30.676Z,38.40
2019-05-26T14:22:05.087Z,38.42
2019-05-26T14:24:52.877Z,40.05
2019-05-26T14:27:15.044Z,40.02
2019-05-26T14:29:49.178Z,39.64
2019-05-26T14:32:23.892Z,39.19
2019-05-26T14:34:57.886Z,38.71
2019-05-26T14:37:31.982Z,38.27
2019-05-26T14:40:06.360Z,37.98
2019-05-26T14:42:40.323Z,37.80
2019-05-26T14:45:14.160Z,37.54
2019-05-26T14:47:48.336Z,37.37
2019-05-26T14:50:22.652Z,37.21
2019-05-26T14:52:58.841Z,37.17
2019-05-26T14:55:32.878Z,37.20
2019-05-26T14:58:15.901Z,37.22
2019-05-26T15:00:43.157Z,37.04
2019-05-26T15:03:17.557Z,36.81
2019-05-26T15:06:05.124Z,36.64
2019-05-26T15:08:27.990Z,36.49
2019-05-26T15:11:02.083Z,36.45
2019-05-26T15:13:36.113Z,36.55
2019-05-26T15:16:10.693Z,36.56
2019-05-26T15:18:44.925Z,36.58
2019-05-26T15:21:19.186Z,36.63
2019-05-26T15:23:52.850Z,36.76
2019-05-26T15:26:26.964Z,36.81
2019-05-26T15:29:00.691Z,36.60
2019-05-26T15:31:34.792Z,36.48
2019-05-26T15:34:09.208Z,36.45
2019-05-26T15:36:43.363Z,36.42
2019-05-26T15:39:17.393Z,36.32
2019-05-26T15:41:51.383Z,36.29
2019-05-26T15:44:25.790Z,36.28
2019-05-26T15:47:00.038Z,36.40
2019-05-26T15:49:34.166Z,37.14
2019-05-26T15:52:08.387Z,38.88
2019-05-26T15:54:42.222Z,38.79
2019-05-26T15:57:16.271Z,38.65
2019-05-26T15:59:50.304Z,38.48
2019-05-26T16:02:24.671Z,38.35
2019-05-26T16:04:59.131Z,38.75
2019-05-26T16:07:33.533Z,38.97
2019-05-26T16:10:08.038Z,39.22
2019-05-26T16:12:41.998Z,39.50
2019-05-26T16:15:16.412Z,39.87
2019-05-26T16:17:50.440Z,40.19
2019-05-26T16:20:24.378Z,40.67
2019-05-26T16:23:01.518Z,41.18
2019-05-26T16:25:35.554Z,41.57
2019-05-26T16:28:09.737Z,41.98
2019-05-26T16:30:43.721Z,42.30
2019-05-26T16:33:17.991Z,42.59
2019-05-26T16:35:55.385Z,42.28
2019-05-26T16:38:27.790Z,42.07
2019-05-26T16:41:01.739Z,42.17
2019-05-26T16:43:35.624Z,42.61
2019-05-26T16:46:09.891Z,42.99
2019-05-26T16:48:43.867Z,43.32
2019-05-26T16:51:17.863Z,43.57
2019-05-26T16:53:52.109Z,43.83
2019-05-26T16:56:26.171Z,44.03
2019-05-26T16:59:00.452Z,44.19
2019-05-26T17:01:34.648Z,44.38
2019-05-26T17:04:08.535Z,44.76
2019-05-26T17:06:42.496Z,44.76
2019-05-26T17:09:16.352Z,45.85
2019-05-26T17:11:50.403Z,45.73
2019-05-26T17:14:25.657Z,46.17
2019-05-26T17:17:13.459Z,47.02
2019-05-26T17:19:35.159Z,47.48
2019-05-26T17:22:09.191Z,47.67
2019-05-26T17:24:43.247Z,47.63
2019-05-26T17:27:17.384Z,47.75
2019-05-26T17:29:51.365Z,47.86
2019-05-26T17:32:25.402Z,47.99
2019-05-26T17:34:59.464Z,48.35
2019-05-26T17:37:33.490Z,48.58
2019-05-26T17:40:08.376Z,48.74
2019-05-26T17:42:42.655Z,48.84
2019-05-26T17:45:16.636Z,48.87
2019-05-26T17:47:50.714Z,49.02
2019-05-26T17:50:25.136Z,49.11
2019-05-26T17:52:59.153Z,49.22
2019-05-26T17:55:33.238Z,49.34
2019-05-26T17:58:07.239Z,49.39
2019-05-26T18:00:41.194Z,49.42
2019-05-26T18:03:15.430Z,49.88
2019-05-26T18:05:49.717Z,50.26
2019-05-26T18:08:23.762Z,50.47
2019-05-26T18:10:57.727Z,50.68
2019-05-26T18:13:31.819Z,51.12
2019-05-26T18:16:05.913Z,50.78
2019-05-26T18:18:40.093Z,49.64
2019-05-26T18:21:14.675Z,49.48
2019-05-26T18:23:48.733Z,49.22
2019-05-26T18:26:22.884Z,49.15
2019-05-26T18:28:56.711Z,49.41
2019-05-26T18:31:31.104Z,49.52
2019-05-26T18:34:05.125Z,49.56
2019-05-26T18:36:39.571Z,49.47
2019-05-26T18:39:13.399Z,49.48
2019-05-26T18:41:48.002Z,49.88
2019-05-26T18:44:22.019Z,50.07
2019-05-26T18:46:56.356Z,50.24
2019-05-26T18:49:34.811Z,50.32
2019-05-26T18:52:09.290Z,50.41
2019-05-26T18:54:43.426Z,50.94
2019-05-26T18:57:17.499Z,51.29
2019-05-26T18:59:51.631Z,51.00
2019-05-26T19:02:25.551Z,51.64
2019-05-26T19:04:59.777Z,51.51
2019-05-26T19:07:33.900Z,50.57
2019-05-26T19:10:08.227Z,50.94
2019-05-26T19:12:42.240Z,50.77
2019-05-26T19:15:16.547Z,50.15
2019-05-26T19:17:50.620Z,49.70
2019-05-26T19:20:25.248Z,49.39
2019-05-26T19:22:59.395Z,49.16
2019-05-26T19:25:33.507Z,48.81
2019-05-26T19:28:07.941Z,48.80
2019-05-26T19:30:45.474Z,48.66
2019-05-26T19:33:18.171Z,47.93
2019-05-26T19:35:52.313Z,47.67
2019-05-26T19:38:26.384Z,48.29
2019-05-26T19:41:00.515Z,48.20
2019-05-26T19:43:34.585Z,48.12
2019-05-26T19:46:08.632Z,48.32
2019-05-26T19:48:42.791Z,48.56
2019-05-26T19:51:16.947Z,48.25
2019-05-26T19:53:50.966Z,47.95
2019-05-26T19:56:25.382Z,47.16
2019-05-26T19:58:59.611Z,47.86
2019-05-26T20:01:34.045Z,47.86
2019-05-26T20:04:08.240Z,47.66
2019-05-26T20:06:43.997Z,47.54
2019-05-26T20:09:18.581Z,47.39
2019-05-26T20:11:52.776Z,47.34
2019-05-26T20:14:26.982Z,47.30
2019-05-26T20:17:01.076Z,46.78
2019-05-26T20:19:35.496Z,46.21
2019-05-26T20:22:09.867Z,47.17
2019-05-26T20:24:43.788Z,47.39
2019-05-26T20:27:17.997Z,47.41
2019-05-26T20:29:52.007Z,47.45
2019-05-26T20:32:26.014Z,47.43
2019-05-26T20:35:00.167Z,47.20
2019-05-26T20:37:34.442Z,46.97
2019-05-26T20:40:08.976Z,46.23
2019-05-26T20:42:43.169Z,46.42
2019-05-26T20:45:17.407Z,47.19
2019-05-26T20:47:51.582Z,48.12
2019-05-26T20:50:29.686Z,48.82
2019-05-26T20:53:01.699Z,49.29
2019-05-26T20:55:36.939Z,49.63
2019-05-26T20:58:10.999Z,49.95
2019-05-26T21:00:45.127Z,49.96
2019-05-26T21:03:19.205Z,49.42
2019-05-26T21:05:53.477Z,48.34
2019-05-26T21:08:27.706Z,48.15
2019-05-26T21:11:01.688Z,47.85
2019-05-26T21:13:35.911Z,47.99
2019-05-26T21:16:10.103Z,47.31
2019-05-26T21:18:44.124Z,48.19
2019-05-26T21:21:19.218Z,48.06
2019-05-26T21:23:53.355Z,46.94
2019-05-26T21:26:29.758Z,45.99
2019-05-26T21:29:05.028Z,44.69
2019-05-26T21:31:39.201Z,43.48
2019-05-26T21:34:13.201Z,42.75
2019-05-26T21:36:47.288Z,42.27
2019-05-26T21:39:21.358Z,41.67
2019-05-26T21:41:55.607Z,41.26
2019-05-26T21:44:29.695Z,40.72
2019-05-26T21:47:03.945Z,40.41
2019-05-26T21:49:37.993Z,40.06
2019-05-26T21:52:12.092Z,39.81
2019-05-26T21:54:46.141Z,39.73
2019-05-26T21:57:20.141Z,39.86
2019-05-26T21:59:54.173Z,39.95
2019-05-26T22:02:28.474Z,39.97
2019-05-26T22:05:02.601Z,40.01
2019-05-26T22:07:36.744Z,39.58
2019-05-26T22:10:11.128Z,39.10
2019-05-26T22:12:45.024Z,38.82
2019-05-26T22:15:19.453Z,38.63
2019-05-26T22:17:53.738Z,38.51
2019-05-26T22:20:28.028Z,38.74
2019-05-26T22:23:05.182Z,39.15
2019-05-26T22:25:39.095Z,39.34
2019-05-26T22:28:13.286Z,39.63
2019-05-26T22:30:47.165Z,39.81
2019-05-26T22:33:21.526Z,40.10
2019-05-26T22:35:55.484Z,40.38
2019-05-26T22:38:30.798Z,40.65
2019-05-26T22:41:05.009Z,40.84
2019-05-26T22:43:39.144Z,41.26
2019-05-26T22:46:13.305Z,41.77
2019-05-26T22:48:47.530Z,42.34
2019-05-26T22:51:21.753Z,42.89
2019-05-26T22:53:55.738Z,43.29
2019-05-26T22:56:29.747Z,43.60
2019-05-26T22:59:04.070Z,43.83
2019-05-26T23:01:38.237Z,44.05
2019-05-26T23:04:12.699Z,44.25
2019-05-26T23:06:46.794Z,44.43
2019-05-26T23:09:20.972Z,44.59
2019-05-26T23:11:55.107Z,44.67
2019-05-26T23:14:29.376Z,44.84
2019-05-26T23:17:03.269Z,44.86
2019-05-26T23:19:37.786Z,44.99
2019-05-26T23:22:11.875Z,45.10
2019-05-26T23:24:45.884Z,44.39
2019-05-26T23:27:20.100Z,43.15
2019-05-26T23:29:54.173Z,42.38
2019-05-26T23:32:30.896Z,41.73
2019-05-26T23:35:05.562Z,41.41
2019-05-26T23:37:39.733Z,41.67
2019-05-26T23:40:13.919Z,41.95
2019-05-26T23:42:48.146Z,42.18
2019-05-26T23:45:22.455Z,42.16
2019-05-26T23:47:56.733Z,42.42
2019-05-26T23:50:30.920Z,42.34
2019-05-26T23:53:05.264Z,42.28
2019-05-26T23:55:39.349Z,42.31
2019-05-26T23:58:13.395Z,42.52
